sensor_id;sensor_type;location;lat;lon;timestamp;P1;durP1;ratioP1;P2;durP2;ratioP2
78931;SDS011;68331;53.362;55.932;2023-04-24T00:00:56;7.45;;;6.68;;
78931;SDS011;68331;53.362;55.932;2023-04-24T00:03:22;9.13;;;6.45;;
78931;SDS011;68331;53.362;55.932;2023-04-24T00:05:49;8.68;;;7.03;;
78931;SDS011;68331;53.362;55.932;2023-04-24T00:08:16;8.63;;;6.15;;
78931;SDS011;68331;53.362;55.932;2023-04-24T00:10:43;7.35;;;6.63;;
78931;SDS011;68331;53.362;55.932;2023-04-24T00:13:09;9.60;;;6.60;;
78931;SDS011;68331;53.362;55.932;2023-04-24T00:15:35;8.60;;;6.22;;
78931;SDS011;68331;53.362;55.932;2023-04-24T00:18:01;6.25;;;5.60;;
78931;SDS011;68331;53.362;55.932;2023-04-24T00:20:28;8.02;;;6.47;;
78931;SDS011;68331;53.362;55.932;2023-04-24T00:22:58;8.48;;;7.53;;
78931;SDS011;68331;53.362;55.932;2023-04-24T00:25:24;7.63;;;6.70;;
78931;SDS011;68331;53.362;55.932;2023-04-24T00:27:50;10.15;;;7.10;;
78931;SDS011;68331;53.362;55.932;2023-04-24T00:30:16;7.90;;;6.68;;
78931;SDS011;68331;53.362;55.932;2023-04-24T00:32:42;9.45;;;6.78;;
78931;SDS011;68331;53.362;55.932;2023-04-24T00:35:08;20.60;;;7.75;;
78931;SDS011;68331;53.362;55.932;2023-04-24T00:37:34;13.23;;;7.30;;
78931;SDS011;68331;53.362;55.932;2023-04-24T00:40:01;8.40;;;6.20;;
78931;SDS011;68331;53.362;55.932;2023-04-24T00:42:29;10.40;;;6.55;;
78931;SDS011;68331;53.362;55.932;2023-04-24T00:44:56;13.93;;;7.15;;
78931;SDS011;68331;53.362;55.932;2023-04-24T00:47:22;9.57;;;6.75;;
78931;SDS011;68331;53.362;55.932;2023-04-24T00:49:50;9.32;;;6.53;;
78931;SDS011;68331;53.362;55.932;2023-04-24T00:52:17;10.50;;;6.72;;
78931;SDS011;68331;53.362;55.932;2023-04-24T00:54:44;12.50;;;6.28;;
78931;SDS011;68331;53.362;55.932;2023-04-24T00:57:13;10.98;;;7.32;;
78931;SDS011;68331;53.362;55.932;2023-04-24T00:59:41;10.45;;;6.72;;
78931;SDS011;68331;53.362;55.932;2023-04-24T01:02:08;9.60;;;7.28;;
78931;SDS011;68331;53.362;55.932;2023-04-24T01:04:36;10.20;;;7.47;;
78931;SDS011;68331;53.362;55.932;2023-04-24T01:07:04;9.30;;;6.88;;
78931;SDS011;68331;53.362;55.932;2023-04-24T01:09:39;10.45;;;6.47;;
78931;SDS011;68331;53.362;55.932;2023-04-24T01:12:08;8.48;;;6.75;;
78931;SDS011;68331;53.362;55.932;2023-04-24T01:14:37;11.25;;;7.20;;
78931;SDS011;68331;53.362;55.932;2023-04-24T01:17:03;10.40;;;7.03;;
78931;SDS011;68331;53.362;55.932;2023-04-24T01:19:29;11.95;;;6.55;;
78931;SDS011;68331;53.362;55.932;2023-04-24T01:21:57;11.75;;;6.72;;
78931;SDS011;68331;53.362;55.932;2023-04-24T01:24:24;8.32;;;6.75;;
78931;SDS011;68331;53.362;55.932;2023-04-24T01:26:51;12.95;;;7.20;;
78931;SDS011;68331;53.362;55.932;2023-04-24T01:29:18;10.25;;;7.10;;
78931;SDS011;68331;53.362;55.932;2023-04-24T01:31:44;14.93;;;8.23;;
78931;SDS011;68331;53.362;55.932;2023-04-24T01:34:10;12.00;;;7.03;;
78931;SDS011;68331;53.362;55.932;2023-04-24T01:36:36;12.23;;;7.85;;
78931;SDS011;68331;53.362;55.932;2023-04-24T01:39:03;9.80;;;7.05;;
78931;SDS011;68331;53.362;55.932;2023-04-24T01:41:29;16.50;;;8.27;;
78931;SDS011;68331;53.362;55.932;2023-04-24T01:43:56;10.68;;;6.88;;
78931;SDS011;68331;53.362;55.932;2023-04-24T01:48:49;10.25;;;7.32;;
78931;SDS011;68331;53.362;55.932;2023-04-24T01:51:19;9.15;;;7.20;;
78931;SDS011;68331;53.362;55.932;2023-04-24T01:53:45;10.88;;;7.43;;
78931;SDS011;68331;53.362;55.932;2023-04-24T01:56:11;9.85;;;7.20;;
78931;SDS011;68331;53.362;55.932;2023-04-24T01:58:37;12.80;;;7.57;;
78931;SDS011;68331;53.362;55.932;2023-04-24T02:01:05;9.70;;;6.70;;
78931;SDS011;68331;53.362;55.932;2023-04-24T02:03:32;10.13;;;7.57;;
78931;SDS011;68331;53.362;55.932;2023-04-24T02:05:58;23.73;;;9.93;;
78931;SDS011;68331;53.362;55.932;2023-04-24T02:08:24;12.13;;;6.82;;
78931;SDS011;68331;53.362;55.932;2023-04-24T02:10:50;11.65;;;6.10;;
78931;SDS011;68331;53.362;55.932;2023-04-24T02:13:17;8.35;;;6.85;;
78931;SDS011;68331;53.362;55.932;2023-04-24T02:15:43;89.72;;;18.00;;
78931;SDS011;68331;53.362;55.932;2023-04-24T02:18:09;8.00;;;6.88;;
78931;SDS011;68331;53.362;55.932;2023-04-24T02:20:36;11.38;;;6.65;;
78931;SDS011;68331;53.362;55.932;2023-04-24T02:23:03;33.13;;;14.60;;
78931;SDS011;68331;53.362;55.932;2023-04-24T02:25:29;14.43;;;7.30;;
78931;SDS011;68331;53.362;55.932;2023-04-24T02:27:55;14.10;;;6.85;;
78931;SDS011;68331;53.362;55.932;2023-04-24T02:30:22;8.50;;;6.35;;
78931;SDS011;68331;53.362;55.932;2023-04-24T02:32:47;29.20;;;8.52;;
78931;SDS011;68331;53.362;55.932;2023-04-24T02:35:14;19.33;;;8.38;;
78931;SDS011;68331;53.362;55.932;2023-04-24T02:37:40;8.43;;;6.38;;
78931;SDS011;68331;53.362;55.932;2023-04-24T02:40:11;30.15;;;8.40;;
78931;SDS011;68331;53.362;55.932;2023-04-24T02:42:38;9.40;;;6.68;;
78931;SDS011;68331;53.362;55.932;2023-04-24T02:45:04;10.15;;;7.07;;
78931;SDS011;68331;53.362;55.932;2023-04-24T02:47:32;11.45;;;6.45;;
78931;SDS011;68331;53.362;55.932;2023-04-24T02:52:25;11.50;;;6.97;;
78931;SDS011;68331;53.362;55.932;2023-04-24T02:54:51;13.00;;;7.07;;
78931;SDS011;68331;53.362;55.932;2023-04-24T02:57:19;10.07;;;6.80;;
78931;SDS011;68331;53.362;55.932;2023-04-24T02:59:45;9.15;;;6.47;;
78931;SDS011;68331;53.362;55.932;2023-04-24T03:02:12;15.93;;;7.07;;
78931;SDS011;68331;53.362;55.932;2023-04-24T03:04:39;10.25;;;6.40;;
78931;SDS011;68331;53.362;55.932;2023-04-24T03:07:05;14.90;;;6.55;;
78931;SDS011;68331;53.362;55.932;2023-04-24T03:09:32;9.02;;;6.43;;
78931;SDS011;68331;53.362;55.932;2023-04-24T03:11:58;10.02;;;6.60;;
78931;SDS011;68331;53.362;55.932;2023-04-24T03:14:24;15.60;;;6.25;;
78931;SDS011;68331;53.362;55.932;2023-04-24T03:16:50;7.70;;;6.28;;
78931;SDS011;68331;53.362;55.932;2023-04-24T03:19:16;10.27;;;6.05;;
78931;SDS011;68331;53.362;55.932;2023-04-24T03:24:22;12.20;;;7.68;;
78931;SDS011;68331;53.362;55.932;2023-04-24T03:26:48;9.73;;;6.97;;
78931;SDS011;68331;53.362;55.932;2023-04-24T03:29:27;10.52;;;6.20;;
78931;SDS011;68331;53.362;55.932;2023-04-24T03:31:53;12.30;;;7.15;;
78931;SDS011;68331;53.362;55.932;2023-04-24T03:34:19;11.10;;;6.40;;
78931;SDS011;68331;53.362;55.932;2023-04-24T03:36:45;10.65;;;7.88;;
78931;SDS011;68331;53.362;55.932;2023-04-24T03:39:13;9.93;;;6.53;;
78931;SDS011;68331;53.362;55.932;2023-04-24T03:41:45;13.63;;;6.53;;
78931;SDS011;68331;53.362;55.932;2023-04-24T03:44:20;10.18;;;6.78;;
78931;SDS011;68331;53.362;55.932;2023-04-24T03:46:46;11.95;;;6.57;;
78931;SDS011;68331;53.362;55.932;2023-04-24T03:49:12;7.28;;;5.88;;
78931;SDS011;68331;53.362;55.932;2023-04-24T03:51:41;10.73;;;6.38;;
78931;SDS011;68331;53.362;55.932;2023-04-24T03:54:17;23.73;;;7.80;;
78931;SDS011;68331;53.362;55.932;2023-04-24T03:56:44;9.45;;;6.10;;
78931;SDS011;68331;53.362;55.932;2023-04-24T03:59:10;12.10;;;6.32;;
78931;SDS011;68331;53.362;55.932;2023-04-24T04:04:15;12.80;;;6.38;;
78931;SDS011;68331;53.362;55.932;2023-04-24T04:06:43;17.20;;;6.85;;
78931;SDS011;68331;53.362;55.932;2023-04-24T04:09:10;15.95;;;6.45;;
78931;SDS011;68331;53.362;55.932;2023-04-24T04:11:36;8.93;;;6.03;;
78931;SDS011;68331;53.362;55.932;2023-04-24T04:14:02;8.60;;;5.35;;
78931;SDS011;68331;53.362;55.932;2023-04-24T04:16:29;10.02;;;5.18;;
78931;SDS011;68331;53.362;55.932;2023-04-24T04:19:01;11.40;;;5.55;;
78931;SDS011;68331;53.362;55.932;2023-04-24T04:21:29;13.82;;;5.63;;
78931;SDS011;68331;53.362;55.932;2023-04-24T04:24:07;6.65;;;4.93;;
78931;SDS011;68331;53.362;55.932;2023-04-24T04:26:37;10.65;;;5.55;;
78931;SDS011;68331;53.362;55.932;2023-04-24T04:29:06;10.95;;;5.25;;
78931;SDS011;68331;53.362;55.932;2023-04-24T04:31:35;13.38;;;5.18;;
78931;SDS011;68331;53.362;55.932;2023-04-24T04:34:06;17.42;;;5.75;;
78931;SDS011;68331;53.362;55.932;2023-04-24T04:36:34;6.47;;;4.60;;
78931;SDS011;68331;53.362;55.932;2023-04-24T04:39:13;6.90;;;5.30;;
78931;SDS011;68331;53.362;55.932;2023-04-24T04:42:10;7.75;;;4.53;;
78931;SDS011;68331;53.362;55.932;2023-04-24T04:44:41;7.15;;;4.68;;
78931;SDS011;68331;53.362;55.932;2023-04-24T04:47:14;7.38;;;5.32;;
78931;SDS011;68331;53.362;55.932;2023-04-24T04:49:42;12.10;;;5.03;;
78931;SDS011;68331;53.362;55.932;2023-04-24T04:52:16;6.07;;;5.32;;
78931;SDS011;68331;53.362;55.932;2023-04-24T04:54:44;6.68;;;4.18;;
78931;SDS011;68331;53.362;55.932;2023-04-24T04:57:11;7.97;;;4.97;;
78931;SDS011;68331;53.362;55.932;2023-04-24T04:59:38;5.47;;;4.20;;
78931;SDS011;68331;53.362;55.932;2023-04-24T05:02:10;9.50;;;4.60;;
78931;SDS011;68331;53.362;55.932;2023-04-24T05:04:36;6.65;;;4.18;;
78931;SDS011;68331;53.362;55.932;2023-04-24T05:07:02;6.82;;;4.68;;
78931;SDS011;68331;53.362;55.932;2023-04-24T05:09:32;29.98;;;7.80;;
78931;SDS011;68331;53.362;55.932;2023-04-24T05:12:03;15.82;;;4.72;;
78931;SDS011;68331;53.362;55.932;2023-04-24T05:14:35;15.68;;;4.53;;
78931;SDS011;68331;53.362;55.932;2023-04-24T05:17:01;18.77;;;4.97;;
78931;SDS011;68331;53.362;55.932;2023-04-24T05:19:29;11.07;;;4.38;;
78931;SDS011;68331;53.362;55.932;2023-04-24T05:21:55;7.00;;;3.85;;
78931;SDS011;68331;53.362;55.932;2023-04-24T05:24:21;20.08;;;5.40;;
78931;SDS011;68331;53.362;55.932;2023-04-24T05:27:06;14.57;;;4.45;;
78931;SDS011;68331;53.362;55.932;2023-04-24T05:29:39;7.95;;;3.95;;
78931;SDS011;68331;53.362;55.932;2023-04-24T05:32:06;40.72;;;5.70;;
78931;SDS011;68331;53.362;55.932;2023-04-24T05:36:59;5.75;;;3.55;;
78931;SDS011;68331;53.362;55.932;2023-04-24T05:39:25;9.73;;;4.57;;
78931;SDS011;68331;53.362;55.932;2023-04-24T05:41:52;6.15;;;3.97;;
78931;SDS011;68331;53.362;55.932;2023-04-24T05:44:18;7.78;;;3.53;;
78931;SDS011;68331;53.362;55.932;2023-04-24T05:46:44;5.88;;;3.58;;
78931;SDS011;68331;53.362;55.932;2023-04-24T05:49:11;13.88;;;3.88;;
78931;SDS011;68331;53.362;55.932;2023-04-24T05:51:37;16.70;;;4.25;;
78931;SDS011;68331;53.362;55.932;2023-04-24T05:54:05;7.40;;;3.92;;
78931;SDS011;68331;53.362;55.932;2023-04-24T05:56:31;11.93;;;4.75;;
78931;SDS011;68331;53.362;55.932;2023-04-24T05:58:58;3.47;;;2.95;;
78931;SDS011;68331;53.362;55.932;2023-04-24T06:01:25;4.97;;;3.05;;
78931;SDS011;68331;53.362;55.932;2023-04-24T06:04:00;5.93;;;3.38;;
78931;SDS011;68331;53.362;55.932;2023-04-24T06:06:26;7.32;;;2.92;;
78931;SDS011;68331;53.362;55.932;2023-04-24T06:08:52;5.43;;;2.97;;
78931;SDS011;68331;53.362;55.932;2023-04-24T06:11:18;6.75;;;3.00;;
78931;SDS011;68331;53.362;55.932;2023-04-24T06:13:45;5.32;;;3.20;;
78931;SDS011;68331;53.362;55.932;2023-04-24T06:16:34;7.55;;;3.33;;
78931;SDS011;68331;53.362;55.932;2023-04-24T06:19:07;4.72;;;3.25;;
78931;SDS011;68331;53.362;55.932;2023-04-24T06:21:34;6.07;;;3.35;;
78931;SDS011;68331;53.362;55.932;2023-04-24T06:24:00;6.18;;;3.35;;
78931;SDS011;68331;53.362;55.932;2023-04-24T06:26:27;6.03;;;3.13;;
78931;SDS011;68331;53.362;55.932;2023-04-24T06:28:53;5.63;;;3.33;;
78931;SDS011;68331;53.362;55.932;2023-04-24T06:31:19;7.82;;;3.70;;
78931;SDS011;68331;53.362;55.932;2023-04-24T06:33:45;3.35;;;2.97;;
78931;SDS011;68331;53.362;55.932;2023-04-24T06:36:12;5.70;;;2.90;;
78931;SDS011;68331;53.362;55.932;2023-04-24T06:38:38;7.00;;;3.17;;
78931;SDS011;68331;53.362;55.932;2023-04-24T06:41:04;5.20;;;3.30;;
78931;SDS011;68331;53.362;55.932;2023-04-24T06:43:31;4.93;;;3.03;;
78931;SDS011;68331;53.362;55.932;2023-04-24T06:45:57;6.47;;;2.72;;
78931;SDS011;68331;53.362;55.932;2023-04-24T06:48:24;6.68;;;2.80;;
78931;SDS011;68331;53.362;55.932;2023-04-24T06:50:51;4.47;;;3.03;;
78931;SDS011;68331;53.362;55.932;2023-04-24T06:53:18;4.50;;;2.95;;
78931;SDS011;68331;53.362;55.932;2023-04-24T06:58:12;6.65;;;2.72;;
78931;SDS011;68331;53.362;55.932;2023-04-24T07:00:39;5.05;;;2.83;;
78931;SDS011;68331;53.362;55.932;2023-04-24T07:03:05;4.80;;;2.10;;
78931;SDS011;68331;53.362;55.932;2023-04-24T07:05:31;2.40;;;1.85;;
78931;SDS011;68331;53.362;55.932;2023-04-24T07:07:59;4.90;;;2.20;;
78931;SDS011;68331;53.362;55.932;2023-04-24T07:10:25;5.97;;;2.10;;
78931;SDS011;68331;53.362;55.932;2023-04-24T07:12:54;3.72;;;2.10;;
78931;SDS011;68331;53.362;55.932;2023-04-24T07:15:23;5.75;;;2.67;;
78931;SDS011;68331;53.362;55.932;2023-04-24T07:17:49;2.67;;;1.90;;
78931;SDS011;68331;53.362;55.932;2023-04-24T07:20:16;11.98;;;2.90;;
78931;SDS011;68331;53.362;55.932;2023-04-24T07:22:41;6.18;;;2.22;;
78931;SDS011;68331;53.362;55.932;2023-04-24T07:25:09;4.40;;;2.20;;
78931;SDS011;68331;53.362;55.932;2023-04-24T07:27:35;4.15;;;2.25;;
78931;SDS011;68331;53.362;55.932;2023-04-24T07:30:03;5.85;;;2.15;;
78931;SDS011;68331;53.362;55.932;2023-04-24T07:32:31;4.00;;;1.90;;
78931;SDS011;68331;53.362;55.932;2023-04-24T07:34:58;7.60;;;2.00;;
78931;SDS011;68331;53.362;55.932;2023-04-24T07:37:24;4.60;;;1.90;;
78931;SDS011;68331;53.362;55.932;2023-04-24T07:42:17;9.00;;;2.45;;
78931;SDS011;68331;53.362;55.932;2023-04-24T07:47:11;6.55;;;2.10;;
78931;SDS011;68331;53.362;55.932;2023-04-24T07:49:37;5.25;;;2.13;;
78931;SDS011;68331;53.362;55.932;2023-04-24T07:52:03;5.47;;;2.55;;
78931;SDS011;68331;53.362;55.932;2023-04-24T07:54:30;5.75;;;1.80;;
78931;SDS011;68331;53.362;55.932;2023-04-24T07:56:56;3.70;;;1.90;;
78931;SDS011;68331;53.362;55.932;2023-04-24T07:59:23;5.07;;;1.90;;
78931;SDS011;68331;53.362;55.932;2023-04-24T08:01:49;4.22;;;1.73;;
78931;SDS011;68331;53.362;55.932;2023-04-24T08:04:15;3.83;;;1.92;;
78931;SDS011;68331;53.362;55.932;2023-04-24T08:06:43;4.75;;;1.70;;
78931;SDS011;68331;53.362;55.932;2023-04-24T08:09:10;2.63;;;1.63;;
78931;SDS011;68331;53.362;55.932;2023-04-24T08:11:36;5.55;;;1.90;;
78931;SDS011;68331;53.362;55.932;2023-04-24T08:14:02;2.83;;;1.70;;
78931;SDS011;68331;53.362;55.932;2023-04-24T08:16:29;6.85;;;1.67;;
78931;SDS011;68331;53.362;55.932;2023-04-24T08:18:55;9.55;;;2.00;;
78931;SDS011;68331;53.362;55.932;2023-04-24T08:21:21;6.15;;;1.73;;
78931;SDS011;68331;53.362;55.932;2023-04-24T08:23:47;4.93;;;1.70;;
78931;SDS011;68331;53.362;55.932;2023-04-24T08:26:13;1.70;;;1.50;;
78931;SDS011;68331;53.362;55.932;2023-04-24T08:28:39;4.45;;;1.70;;
78931;SDS011;68331;53.362;55.932;2023-04-24T08:31:05;2.95;;;1.70;;
78931;SDS011;68331;53.362;55.932;2023-04-24T08:33:31;3.85;;;1.80;;
78931;SDS011;68331;53.362;55.932;2023-04-24T08:36:03;5.40;;;1.42;;
78931;SDS011;68331;53.362;55.932;2023-04-24T08:38:30;4.32;;;1.45;;
78931;SDS011;68331;53.362;55.932;2023-04-24T08:40:57;3.30;;;1.42;;
78931;SDS011;68331;53.362;55.932;2023-04-24T08:43:25;5.47;;;1.67;;
78931;SDS011;68331;53.362;55.932;2023-04-24T08:48:18;2.58;;;1.50;;
78931;SDS011;68331;53.362;55.932;2023-04-24T08:50:44;3.58;;;1.63;;
78931;SDS011;68331;53.362;55.932;2023-04-24T08:53:11;5.40;;;1.73;;
78931;SDS011;68331;53.362;55.932;2023-04-24T08:55:37;2.70;;;1.60;;
78931;SDS011;68331;53.362;55.932;2023-04-24T08:58:03;10.25;;;1.95;;
78931;SDS011;68331;53.362;55.932;2023-04-24T09:00:30;4.68;;;1.50;;
78931;SDS011;68331;53.362;55.932;2023-04-24T09:02:57;3.80;;;1.60;;
78931;SDS011;68331;53.362;55.932;2023-04-24T09:05:25;2.03;;;1.60;;
78931;SDS011;68331;53.362;55.932;2023-04-24T09:07:53;4.90;;;1.50;;
78931;SDS011;68331;53.362;55.932;2023-04-24T09:10:24;3.42;;;1.80;;
78931;SDS011;68331;53.362;55.932;2023-04-24T09:12:51;2.40;;;1.30;;
78931;SDS011;68331;53.362;55.932;2023-04-24T09:15:20;4.53;;;1.55;;
78931;SDS011;68331;53.362;55.932;2023-04-24T09:17:47;4.07;;;1.55;;
78931;SDS011;68331;53.362;55.932;2023-04-24T09:20:13;2.88;;;1.63;;
78931;SDS011;68331;53.362;55.932;2023-04-24T09:22:39;16.42;;;2.67;;
78931;SDS011;68331;53.362;55.932;2023-04-24T09:25:06;1.52;;;1.23;;
78931;SDS011;68331;53.362;55.932;2023-04-24T09:27:34;7.25;;;2.35;;
78931;SDS011;68331;53.362;55.932;2023-04-24T09:30:01;5.57;;;1.92;;
78931;SDS011;68331;53.362;55.932;2023-04-24T09:32:31;11.18;;;1.63;;
78931;SDS011;68331;53.362;55.932;2023-04-24T09:37:37;3.53;;;1.40;;
78931;SDS011;68331;53.362;55.932;2023-04-24T09:40:15;3.72;;;1.80;;
78931;SDS011;68331;53.362;55.932;2023-04-24T09:42:52;5.72;;;2.15;;
78931;SDS011;68331;53.362;55.932;2023-04-24T09:45:19;3.63;;;1.27;;
78931;SDS011;68331;53.362;55.932;2023-04-24T09:47:46;2.30;;;1.70;;
78931;SDS011;68331;53.362;55.932;2023-04-24T09:50:17;1.38;;;1.23;;
78931;SDS011;68331;53.362;55.932;2023-04-24T09:52:55;2.78;;;1.38;;
78931;SDS011;68331;53.362;55.932;2023-04-24T10:00:24;4.95;;;1.58;;
78931;SDS011;68331;53.362;55.932;2023-04-24T10:03:02;3.88;;;1.50;;
78931;SDS011;68331;53.362;55.932;2023-04-24T10:05:30;5.45;;;1.52;;
78931;SDS011;68331;53.362;55.932;2023-04-24T10:07:57;3.50;;;1.63;;
78931;SDS011;68331;53.362;55.932;2023-04-24T10:10:31;4.13;;;1.67;;
78931;SDS011;68331;53.362;55.932;2023-04-24T10:12:58;3.53;;;1.60;;
78931;SDS011;68331;53.362;55.932;2023-04-24T10:15:26;3.60;;;1.50;;
78931;SDS011;68331;53.362;55.932;2023-04-24T10:17:52;4.93;;;1.52;;
78931;SDS011;68331;53.362;55.932;2023-04-24T10:20:20;2.83;;;1.80;;
78931;SDS011;68331;53.362;55.932;2023-04-24T10:22:48;1.85;;;1.60;;
78931;SDS011;68331;53.362;55.932;2023-04-24T10:25:16;2.03;;;1.20;;
78931;SDS011;68331;53.362;55.932;2023-04-24T10:27:45;1.52;;;1.30;;
78931;SDS011;68331;53.362;55.932;2023-04-24T10:30:13;3.33;;;1.42;;
78931;SDS011;68331;53.362;55.932;2023-04-24T10:32:39;7.07;;;1.67;;
78931;SDS011;68331;53.362;55.932;2023-04-24T10:35:06;2.88;;;1.35;;
78931;SDS011;68331;53.362;55.932;2023-04-24T10:37:37;2.33;;;1.60;;
78931;SDS011;68331;53.362;55.932;2023-04-24T10:40:06;7.63;;;1.77;;
78931;SDS011;68331;53.362;55.932;2023-04-24T10:42:34;4.38;;;1.98;;
78931;SDS011;68331;53.362;55.932;2023-04-24T10:45:06;3.90;;;1.50;;
78931;SDS011;68331;53.362;55.932;2023-04-24T10:47:41;2.10;;;1.30;;
78931;SDS011;68331;53.362;55.932;2023-04-24T10:50:10;8.63;;;2.00;;
78931;SDS011;68331;53.362;55.932;2023-04-24T10:52:46;3.30;;;1.45;;
78931;SDS011;68331;53.362;55.932;2023-04-24T10:55:13;2.17;;;1.52;;
78931;SDS011;68331;53.362;55.932;2023-04-24T10:58:00;5.20;;;1.60;;
78931;SDS011;68331;53.362;55.932;2023-04-24T11:00:28;4.13;;;1.55;;
78931;SDS011;68331;53.362;55.932;2023-04-24T11:02:54;2.70;;;1.50;;
78931;SDS011;68331;53.362;55.932;2023-04-24T11:05:21;2.60;;;1.60;;
78931;SDS011;68331;53.362;55.932;2023-04-24T11:10:31;6.30;;;2.72;;
78931;SDS011;68331;53.362;55.932;2023-04-24T11:12:57;3.00;;;1.38;;
78931;SDS011;68331;53.362;55.932;2023-04-24T11:15:23;4.97;;;1.73;;
78931;SDS011;68331;53.362;55.932;2023-04-24T11:17:49;3.33;;;1.60;;
78931;SDS011;68331;53.362;55.932;2023-04-24T11:20:22;3.60;;;1.63;;
78931;SDS011;68331;53.362;55.932;2023-04-24T11:22:52;5.20;;;1.50;;
78931;SDS011;68331;53.362;55.932;2023-04-24T11:25:23;4.63;;;2.00;;
78931;SDS011;68331;53.362;55.932;2023-04-24T11:27:50;4.50;;;2.40;;
78931;SDS011;68331;53.362;55.932;2023-04-24T11:30:29;3.38;;;2.30;;
78931;SDS011;68331;53.362;55.932;2023-04-24T11:33:01;3.55;;;1.90;;
78931;SDS011;68331;53.362;55.932;2023-04-24T11:35:28;4.57;;;2.10;;
78931;SDS011;68331;53.362;55.932;2023-04-24T11:37:56;5.78;;;2.20;;
78931;SDS011;68331;53.362;55.932;2023-04-24T11:40:22;3.92;;;1.70;;
78931;SDS011;68331;53.362;55.932;2023-04-24T11:42:50;5.55;;;1.77;;
78931;SDS011;68331;53.362;55.932;2023-04-24T11:45:18;4.18;;;1.92;;
78931;SDS011;68331;53.362;55.932;2023-04-24T11:47:48;3.53;;;1.70;;
78931;SDS011;68331;53.362;55.932;2023-04-24T11:50:15;5.32;;;1.83;;
78931;SDS011;68331;53.362;55.932;2023-04-24T11:52:45;5.50;;;2.00;;
78931;SDS011;68331;53.362;55.932;2023-04-24T11:57:47;3.28;;;2.60;;
78931;SDS011;68331;53.362;55.932;2023-04-24T12:00:15;5.05;;;1.83;;
78931;SDS011;68331;53.362;55.932;2023-04-24T12:02:46;6.32;;;2.13;;
78931;SDS011;68331;53.362;55.932;2023-04-24T12:05:22;3.90;;;2.45;;
78931;SDS011;68331;53.362;55.932;2023-04-24T12:07:49;6.20;;;2.35;;
78931;SDS011;68331;53.362;55.932;2023-04-24T12:10:22;3.38;;;2.10;;
78931;SDS011;68331;53.362;55.932;2023-04-24T12:12:52;6.35;;;2.20;;
78931;SDS011;68331;53.362;55.932;2023-04-24T12:15:19;4.65;;;2.30;;
78931;SDS011;68331;53.362;55.932;2023-04-24T12:17:46;3.72;;;2.13;;
78931;SDS011;68331;53.362;55.932;2023-04-24T12:20:13;7.88;;;2.88;;
78931;SDS011;68331;53.362;55.932;2023-04-24T12:22:46;4.13;;;1.98;;
78931;SDS011;68331;53.362;55.932;2023-04-24T12:25:21;11.85;;;2.78;;
78931;SDS011;68331;53.362;55.932;2023-04-24T12:27:55;8.38;;;2.95;;
78931;SDS011;68331;53.362;55.932;2023-04-24T12:30:41;5.53;;;2.35;;
78931;SDS011;68331;53.362;55.932;2023-04-24T12:33:10;5.20;;;2.20;;
78931;SDS011;68331;53.362;55.932;2023-04-24T12:35:36;5.50;;;2.70;;
78931;SDS011;68331;53.362;55.932;2023-04-24T12:38:09;10.27;;;2.85;;
78931;SDS011;68331;53.362;55.932;2023-04-24T12:40:36;6.53;;;2.83;;
78931;SDS011;68331;53.362;55.932;2023-04-24T12:43:12;4.63;;;2.22;;
78931;SDS011;68331;53.362;55.932;2023-04-24T12:45:41;8.52;;;2.45;;
78931;SDS011;68331;53.362;55.932;2023-04-24T12:48:07;3.75;;;2.22;;
78931;SDS011;68331;53.362;55.932;2023-04-24T12:50:33;3.40;;;2.75;;
78931;SDS011;68331;53.362;55.932;2023-04-24T12:52:59;5.18;;;2.15;;
78931;SDS011;68331;53.362;55.932;2023-04-24T12:55:25;3.80;;;2.65;;
78931;SDS011;68331;53.362;55.932;2023-04-24T12:57:52;2.28;;;2.00;;
78931;SDS011;68331;53.362;55.932;2023-04-24T13:00:20;2.92;;;1.98;;
78931;SDS011;68331;53.362;55.932;2023-04-24T13:07:39;4.28;;;2.47;;
78931;SDS011;68331;53.362;55.932;2023-04-24T13:10:06;8.45;;;2.58;;
78931;SDS011;68331;53.362;55.932;2023-04-24T13:12:34;4.95;;;2.30;;
78931;SDS011;68331;53.362;55.932;2023-04-24T13:15:00;5.05;;;2.55;;
78931;SDS011;68331;53.362;55.932;2023-04-24T13:17:26;4.40;;;2.30;;
78931;SDS011;68331;53.362;55.932;2023-04-24T13:19:53;3.47;;;2.20;;
78931;SDS011;68331;53.362;55.932;2023-04-24T13:22:20;5.22;;;2.22;;
78931;SDS011;68331;53.362;55.932;2023-04-24T13:24:46;4.30;;;2.38;;
78931;SDS011;68331;53.362;55.932;2023-04-24T13:27:14;5.00;;;2.50;;
78931;SDS011;68331;53.362;55.932;2023-04-24T13:34:40;4.40;;;2.47;;
78931;SDS011;68331;53.362;55.932;2023-04-24T13:37:06;3.05;;;2.45;;
78931;SDS011;68331;53.362;55.932;2023-04-24T13:42:06;5.13;;;2.78;;
78931;SDS011;68331;53.362;55.932;2023-04-24T13:44:34;3.80;;;2.38;;
78931;SDS011;68331;53.362;55.932;2023-04-24T13:47:11;10.70;;;3.33;;
78931;SDS011;68331;53.362;55.932;2023-04-24T13:49:37;9.48;;;3.38;;
78931;SDS011;68331;53.362;55.932;2023-04-24T13:52:03;12.23;;;3.55;;
78931;SDS011;68331;53.362;55.932;2023-04-24T13:54:29;5.25;;;2.50;;
78931;SDS011;68331;53.362;55.932;2023-04-24T13:57:00;5.47;;;3.22;;
78931;SDS011;68331;53.362;55.932;2023-04-24T13:59:29;11.05;;;3.35;;
78931;SDS011;68331;53.362;55.932;2023-04-24T14:01:55;18.08;;;3.88;;
78931;SDS011;68331;53.362;55.932;2023-04-24T14:04:21;6.65;;;2.95;;
78931;SDS011;68331;53.362;55.932;2023-04-24T14:06:47;6.05;;;3.28;;
78931;SDS011;68331;53.362;55.932;2023-04-24T14:09:16;9.73;;;3.15;;
78931;SDS011;68331;53.362;55.932;2023-04-24T14:11:42;4.07;;;2.90;;
78931;SDS011;68331;53.362;55.932;2023-04-24T14:14:08;4.63;;;3.03;;
78931;SDS011;68331;53.362;55.932;2023-04-24T14:16:34;5.40;;;3.35;;
78931;SDS011;68331;53.362;55.932;2023-04-24T14:19:01;14.10;;;3.83;;
78931;SDS011;68331;53.362;55.932;2023-04-24T14:21:27;4.22;;;3.05;;
78931;SDS011;68331;53.362;55.932;2023-04-24T14:23:54;5.60;;;2.70;;
78931;SDS011;68331;53.362;55.932;2023-04-24T14:26:23;8.77;;;3.22;;
78931;SDS011;68331;53.362;55.932;2023-04-24T14:28:50;5.35;;;3.08;;
78931;SDS011;68331;53.362;55.932;2023-04-24T14:31:18;5.97;;;3.30;;
78931;SDS011;68331;53.362;55.932;2023-04-24T14:33:45;4.90;;;3.10;;
78931;SDS011;68331;53.362;55.932;2023-04-24T14:36:11;8.88;;;3.78;;
78931;SDS011;68331;53.362;55.932;2023-04-24T14:38:40;8.52;;;4.07;;
78931;SDS011;68331;53.362;55.932;2023-04-24T14:41:06;10.68;;;4.43;;
78931;SDS011;68331;53.362;55.932;2023-04-24T14:43:35;6.68;;;3.65;;
78931;SDS011;68331;53.362;55.932;2023-04-24T14:46:04;9.73;;;4.60;;
78931;SDS011;68331;53.362;55.932;2023-04-24T14:48:33;6.97;;;3.75;;
78931;SDS011;68331;53.362;55.932;2023-04-24T14:50:59;7.70;;;4.97;;
78931;SDS011;68331;53.362;55.932;2023-04-24T14:53:25;7.53;;;3.72;;
78931;SDS011;68331;53.362;55.932;2023-04-24T14:55:51;6.95;;;3.58;;
78931;SDS011;68331;53.362;55.932;2023-04-24T14:58:19;5.68;;;3.67;;
78931;SDS011;68331;53.362;55.932;2023-04-24T15:00:45;5.43;;;3.63;;
78931;SDS011;68331;53.362;55.932;2023-04-24T15:03:12;6.18;;;3.78;;
78931;SDS011;68331;53.362;55.932;2023-04-24T15:05:38;10.07;;;4.38;;
78931;SDS011;68331;53.362;55.932;2023-04-24T15:08:04;5.28;;;3.58;;
78931;SDS011;68331;53.362;55.932;2023-04-24T15:10:33;10.43;;;4.43;;
78931;SDS011;68331;53.362;55.932;2023-04-24T15:12:59;10.02;;;3.90;;
78931;SDS011;68331;53.362;55.932;2023-04-24T15:15:25;6.18;;;3.42;;
78931;SDS011;68331;53.362;55.932;2023-04-24T15:17:52;7.68;;;3.95;;
78931;SDS011;68331;53.362;55.932;2023-04-24T15:20:21;13.73;;;4.65;;
78931;SDS011;68331;53.362;55.932;2023-04-24T15:22:49;10.23;;;3.97;;